sensor_id;sensor_type;location;lat;lon;timestamp;P1;durP1;ratioP1;P2;durP2;ratioP2
22515;SDS011;11424;48.860;9.624;2022-11-12T00:00:22;3.4;;;3.8;;
22515;SDS011;11424;48.860;9.624;2022-11-12T00:05:22;2.8;;;3.1;;
22515;SDS011;11424;48.860;9.624;2022-11-12T00:10:22;2.5;;;2.7;;
22515;SDS011;11424;48.860;9.624;2022-11-12T00:15:22;2.6;;;2.8;;
22515;SDS011;11424;48.860;9.624;2022-11-12T00:20:22;2.8;;;3;;
22515;SDS011;11424;48.860;9.624;2022-11-12T00:25:22;2.5;;;2.7;;
22515;SDS011;11424;48.860;9.624;2022-11-12T00:30:22;2.8;;;3.1;;
22515;SDS011;11424;48.860;9.624;2022-11-12T00:35:22;3.4;;;3.8;;
22515;SDS011;11424;48.860;9.624;2022-11-12T00:40:22;3.7;;;5.1;;
22515;SDS011;11424;48.860;9.624;2022-11-12T00:45:22;3.2;;;3.6;;
22515;SDS011;11424;48.860;9.624;2022-11-12T00:50:22;3.2;;;4;;
22515;SDS011;11424;48.860;9.624;2022-11-12T00:55:22;2.9;;;3.4;;
22515;SDS011;11424;48.860;9.624;2022-11-12T01:00:22;3;;;3.6;;
22515;SDS011;11424;48.860;9.624;2022-11-12T01:05:22;3.2;;;4;;
22515;SDS011;11424;48.860;9.624;2022-11-12T01:10:22;2.9;;;3.3;;
22515;SDS011;11424;48.860;9.624;2022-11-12T01:15:22;2.9;;;3.2;;
22515;SDS011;11424;48.860;9.624;2022-11-12T01:20:22;3.1;;;3.9;;
22515;SDS011;11424;48.860;9.624;2022-11-12T01:25:22;2.9;;;3.2;;
22515;SDS011;11424;48.860;9.624;2022-11-12T01:30:22;3.2;;;3.5;;
22515;SDS011;11424;48.860;9.624;2022-11-12T01:35:22;3.4;;;4.6;;
22515;SDS011;11424;48.860;9.624;2022-11-12T01:40:22;3.5;;;4.5;;
22515;SDS011;11424;48.860;9.624;2022-11-12T01:50:23;3.1;;;5.3;;
22515;SDS011;11424;48.860;9.624;2022-11-12T01:55:23;2.9;;;4.5;;
22515;SDS011;11424;48.860;9.624;2022-11-12T02:00:22;3;;;4.2;;
22515;SDS011;11424;48.860;9.624;2022-11-12T02:05:22;3.6;;;5.4;;
22515;SDS011;11424;48.860;9.624;2022-11-12T02:10:22;3.4;;;4.4;;
22515;SDS011;11424;48.860;9.624;2022-11-12T02:15:22;3.2;;;4.1;;
22515;SDS011;11424;48.860;9.624;2022-11-12T02:20:22;3.1;;;3.4;;
22515;SDS011;11424;48.860;9.624;2022-11-12T02:25:22;3.6;;;4;;
22515;SDS011;11424;48.860;9.624;2022-11-12T02:30:30;3.2;;;3.6;;
22515;SDS011;11424;48.860;9.624;2022-11-12T02:35:22;3.5;;;3.9;;
22515;SDS011;11424;48.860;9.624;2022-11-12T02:40:22;3.3;;;3.6;;
22515;SDS011;11424;48.860;9.624;2022-11-12T02:45:22;3.4;;;4.1;;
22515;SDS011;11424;48.860;9.624;2022-11-12T02:50:22;3.2;;;3.5;;
22515;SDS011;11424;48.860;9.624;2022-11-12T02:55:22;3.4;;;4.1;;
22515;SDS011;11424;48.860;9.624;2022-11-12T03:00:22;3.1;;;3.4;;
22515;SDS011;11424;48.860;9.624;2022-11-12T03:05:22;3.3;;;3.8;;
22515;SDS011;11424;48.860;9.624;2022-11-12T03:10:22;3.1;;;3.6;;
22515;SDS011;11424;48.860;9.624;2022-11-12T03:15:22;3;;;3.5;;
22515;SDS011;11424;48.860;9.624;2022-11-12T03:20:22;3;;;3.3;;
22515;SDS011;11424;48.860;9.624;2022-11-12T03:25:22;3.1;;;3.5;;
22515;SDS011;11424;48.860;9.624;2022-11-12T03:30:22;3;;;3.3;;
22515;SDS011;11424;48.860;9.624;2022-11-12T03:35:22;3.5;;;4;;
22515;SDS011;11424;48.860;9.624;2022-11-12T03:40:22;3;;;3.6;;
22515;SDS011;11424;48.860;9.624;2022-11-12T03:45:23;3;;;3.3;;
22515;SDS011;11424;48.860;9.624;2022-11-12T03:50:23;3;;;3.3;;
22515;SDS011;11424;48.860;9.624;2022-11-12T03:55:23;3.2;;;3.6;;
22515;SDS011;11424;48.860;9.624;2022-11-12T04:00:23;3;;;3.3;;
22515;SDS011;11424;48.860;9.624;2022-11-12T04:05:22;3.2;;;3.5;;
22515;SDS011;11424;48.860;9.624;2022-11-12T04:10:22;3.1;;;3.4;;
22515;SDS011;11424;48.860;9.624;2022-11-12T04:15:22;3.3;;;3.6;;
22515;SDS011;11424;48.860;9.624;2022-11-12T04:20:22;3.1;;;3.7;;
22515;SDS011;11424;48.860;9.624;2022-11-12T04:25:22;2.8;;;3.1;;
22515;SDS011;11424;48.860;9.624;2022-11-12T04:30:22;3;;;3.5;;
22515;SDS011;11424;48.860;9.624;2022-11-12T04:35:23;2.6;;;3;;
22515;SDS011;11424;48.860;9.624;2022-11-12T04:40:23;2.8;;;3.2;;
22515;SDS011;11424;48.860;9.624;2022-11-12T04:45:22;2.4;;;2.6;;
22515;SDS011;11424;48.860;9.624;2022-11-12T04:50:22;2.7;;;3;;
22515;SDS011;11424;48.860;9.624;2022-11-12T04:55:22;2.6;;;3;;
22515;SDS011;11424;48.860;9.624;2022-11-12T05:00:22;2.6;;;2.8;;
22515;SDS011;11424;48.860;9.624;2022-11-12T05:05:22;2.4;;;2.6;;
22515;SDS011;11424;48.860;9.624;2022-11-12T05:10:22;2.8;;;3;;
22515;SDS011;11424;48.860;9.624;2022-11-12T05:15:22;2.6;;;2.8;;
22515;SDS011;11424;48.860;9.624;2022-11-12T05:20:22;2.7;;;3;;
22515;SDS011;11424;48.860;9.624;2022-11-12T05:25:22;2.5;;;2.9;;
22515;SDS011;11424;48.860;9.624;2022-11-12T05:30:22;2.3;;;2.5;;
22515;SDS011;11424;48.860;9.624;2022-11-12T05:35:22;2.6;;;2.9;;
22515;SDS011;11424;48.860;9.624;2022-11-12T05:40:22;3.1;;;3.4;;
22515;SDS011;11424;48.860;9.624;2022-11-12T05:45:22;3.4;;;3.8;;
22515;SDS011;11424;48.860;9.624;2022-11-12T05:50:22;3.8;;;4.8;;
22515;SDS011;11424;48.860;9.624;2022-11-12T05:55:22;3.8;;;4.2;;
22515;SDS011;11424;48.860;9.624;2022-11-12T06:00:22;3.9;;;4.3;;
22515;SDS011;11424;48.860;9.624;2022-11-12T06:05:22;3.3;;;3.6;;
22515;SDS011;11424;48.860;9.624;2022-11-12T06:10:22;3;;;3.3;;
22515;SDS011;11424;48.860;9.624;2022-11-12T06:15:22;3.3;;;3.6;;
22515;SDS011;11424;48.860;9.624;2022-11-12T06:20:22;3.1;;;3.4;;
22515;SDS011;11424;48.860;9.624;2022-11-12T06:25:22;3.3;;;3.6;;
22515;SDS011;11424;48.860;9.624;2022-11-12T06:30:22;3.1;;;3.5;;
22515;SDS011;11424;48.860;9.624;2022-11-12T06:35:22;2.8;;;3.1;;
22515;SDS011;11424;48.860;9.624;2022-11-12T06:40:22;2.7;;;2.9;;
22515;SDS011;11424;48.860;9.624;2022-11-12T06:45:22;2.5;;;2.7;;
22515;SDS011;11424;48.860;9.624;2022-11-12T06:50:22;2.5;;;2.9;;
22515;SDS011;11424;48.860;9.624;2022-11-12T06:55:22;2.7;;;3.3;;
22515;SDS011;11424;48.860;9.624;2022-11-12T07:00:22;3.1;;;4.7;;
22515;SDS011;11424;48.860;9.624;2022-11-12T07:05:22;2.6;;;3;;
22515;SDS011;11424;48.860;9.624;2022-11-12T07:10:22;2.6;;;3.1;;
22515;SDS011;11424;48.860;9.624;2022-11-12T07:15:22;2.4;;;2.7;;
22515;SDS011;11424;48.860;9.624;2022-11-12T07:20:22;2.6;;;3;;
22515;SDS011;11424;48.860;9.624;2022-11-12T07:25:22;2.4;;;3;;
22515;SDS011;11424;48.860;9.624;2022-11-12T07:30:22;2.2;;;2.4;;
22515;SDS011;11424;48.860;9.624;2022-11-12T07:35:22;2.5;;;2.7;;
22515;SDS011;11424;48.860;9.624;2022-11-12T07:40:22;2.4;;;2.7;;
22515;SDS011;11424;48.860;9.624;2022-11-12T07:45:22;2.7;;;3.1;;
22515;SDS011;11424;48.860;9.624;2022-11-12T07:50:22;2.3;;;2.7;;
22515;SDS011;11424;48.860;9.624;2022-11-12T07:55:22;2.4;;;3.1;;
22515;SDS011;11424;48.860;9.624;2022-11-12T08:00:22;2.6;;;2.9;;
22515;SDS011;11424;48.860;9.624;2022-11-12T08:05:22;2.5;;;2.8;;
22515;SDS011;11424;48.860;9.624;2022-11-12T08:10:22;3.5;;;4.4;;
22515;SDS011;11424;48.860;9.624;2022-11-12T08:15:22;3;;;3.5;;
22515;SDS011;11424;48.860;9.624;2022-11-12T08:20:22;2.5;;;2.8;;
22515;SDS011;11424;48.860;9.624;2022-11-12T08:25:22;2.3;;;2.5;;
22515;SDS011;11424;48.860;9.624;2022-11-12T08:30:22;2.1;;;2.3;;
22515;SDS011;11424;48.860;9.624;2022-11-12T08:35:23;2.1;;;2.9;;
22515;SDS011;11424;48.860;9.624;2022-11-12T08:40:22;1.8;;;2;;
22515;SDS011;11424;48.860;9.624;2022-11-12T08:45:22;2;;;2.1;;
22515;SDS011;11424;48.860;9.624;2022-11-12T08:50:22;1.6;;;1.7;;
22515;SDS011;11424;48.860;9.624;2022-11-12T08:55:22;1.7;;;2.3;;
22515;SDS011;11424;48.860;9.624;2022-11-12T09:00:22;2;;;2.6;;
22515;SDS011;11424;48.860;9.624;2022-11-12T09:05:22;2.1;;;2.7;;
22515;SDS011;11424;48.860;9.624;2022-11-12T09:10:22;2.2;;;2.4;;
22515;SDS011;11424;48.860;9.624;2022-11-12T09:15:23;1.8;;;2;;
22515;SDS011;11424;48.860;9.624;2022-11-12T09:20:22;1.8;;;1.9;;
22515;SDS011;11424;48.860;9.624;2022-11-12T09:25:22;1.6;;;1.7;;
22515;SDS011;11424;48.860;9.624;2022-11-12T09:30:22;1.9;;;2;;
22515;SDS011;11424;48.860;9.624;2022-11-12T09:35:22;2;;;2.2;;
22515;SDS011;11424;48.860;9.624;2022-11-12T09:40:22;2.3;;;2.5;;
22515;SDS011;11424;48.860;9.624;2022-11-12T09:45:23;2.4;;;2.8;;
22515;SDS011;11424;48.860;9.624;2022-11-12T09:50:24;2.3;;;2.4;;
22515;SDS011;11424;48.860;9.624;2022-11-12T09:55:24;2.2;;;2.4;;
22515;SDS011;11424;48.860;9.624;2022-11-12T10:00:22;2.3;;;2.5;;
22515;SDS011;11424;48.860;9.624;2022-11-12T10:05:25;2.1;;;2.3;;
22515;SDS011;11424;48.860;9.624;2022-11-12T10:10:23;2.5;;;2.7;;
22515;SDS011;11424;48.860;9.624;2022-11-12T10:15:31;2.8;;;3;;
22515;SDS011;11424;48.860;9.624;2022-11-12T10:20:24;2.7;;;2.9;;
22515;SDS011;11424;48.860;9.624;2022-11-12T10:25:23;2.7;;;2.9;;
22515;SDS011;11424;48.860;9.624;2022-11-12T10:30:23;2.5;;;2.7;;
22515;SDS011;11424;48.860;9.624;2022-11-12T10:35:22;2.4;;;2.8;;
22515;SDS011;11424;48.860;9.624;2022-11-12T10:40:26;2.4;;;2.6;;
22515;SDS011;11424;48.860;9.624;2022-11-12T10:45:22;2.8;;;3;;
22515;SDS011;11424;48.860;9.624;2022-11-12T10:50:24;2.4;;;2.6;;
22515;SDS011;11424;48.860;9.624;2022-11-12T10:55:23;2.5;;;3;;
22515;SDS011;11424;48.860;9.624;2022-11-12T11:00:23;2.3;;;2.5;;
22515;SDS011;11424;48.860;9.624;2022-11-12T11:05:31;2.2;;;2.4;;
22515;SDS011;11424;48.860;9.624;2022-11-12T11:10:24;2;;;2.2;;
22515;SDS011;11424;48.860;9.624;2022-11-12T11:15:22;2;;;2.2;;
22515;SDS011;11424;48.860;9.624;2022-11-12T11:20:23;2.1;;;2.6;;
22515;SDS011;11424;48.860;9.624;2022-11-12T11:25:23;2.2;;;2.4;;
22515;SDS011;11424;48.860;9.624;2022-11-12T11:30:22;2.1;;;2.5;;
22515;SDS011;11424;48.860;9.624;2022-11-12T11:35:24;2.6;;;3;;
22515;SDS011;11424;48.860;9.624;2022-11-12T11:40:24;2.6;;;2.8;;
22515;SDS011;11424;48.860;9.624;2022-11-12T11:45:24;3;;;3.2;;
22515;SDS011;11424;48.860;9.624;2022-11-12T11:50:24;2.1;;;2.2;;
22515;SDS011;11424;48.860;9.624;2022-11-12T11:55:27;2.3;;;2.5;;
22515;SDS011;11424;48.860;9.624;2022-11-12T12:00:23;2.4;;;2.6;;
22515;SDS011;11424;48.860;9.624;2022-11-12T12:05:27;2.4;;;2.6;;
22515;SDS011;11424;48.860;9.624;2022-11-12T12:10:23;2.4;;;2.6;;
22515;SDS011;11424;48.860;9.624;2022-11-12T12:15:27;2.2;;;2.4;;
22515;SDS011;11424;48.860;9.624;2022-11-12T12:20:24;1.9;;;2.1;;
22515;SDS011;11424;48.860;9.624;2022-11-12T12:25:24;1.9;;;2.1;;
22515;SDS011;11424;48.860;9.624;2022-11-12T12:30:23;2.2;;;2.4;;
22515;SDS011;11424;48.860;9.624;2022-11-12T12:35:24;2.1;;;2.3;;
22515;SDS011;11424;48.860;9.624;2022-11-12T12:40:24;2;;;2.2;;
22515;SDS011;11424;48.860;9.624;2022-11-12T12:45:29;2.2;;;2.4;;
22515;SDS011;11424;48.860;9.624;2022-11-12T12:50:22;2.2;;;2.4;;
22515;SDS011;11424;48.860;9.624;2022-11-12T12:55:39;2;;;2.1;;
22515;SDS011;11424;48.860;9.624;2022-11-12T13:00:23;1.7;;;1.8;;
22515;SDS011;11424;48.860;9.624;2022-11-12T13:05:24;2.3;;;2.5;;
22515;SDS011;11424;48.860;9.624;2022-11-12T13:10:46;2;;;2.1;;
22515;SDS011;11424;48.860;9.624;2022-11-12T13:15:31;1.5;;;1.6;;
22515;SDS011;11424;48.860;9.624;2022-11-12T13:20:32;1.5;;;1.6;;
22515;SDS011;11424;48.860;9.624;2022-11-12T13:25:23;1.9;;;2.1;;
22515;SDS011;11424;48.860;9.624;2022-11-12T13:30:54;1.8;;;1.9;;
22515;SDS011;11424;48.860;9.624;2022-11-12T13:35:25;1.6;;;1.7;;
22515;SDS011;11424;48.860;9.624;2022-11-12T13:40:25;1.8;;;2;;
22515;SDS011;11424;48.860;9.624;2022-11-12T13:45:24;1.9;;;2.1;;
22515;SDS011;11424;48.860;9.624;2022-11-12T13:50:23;1.7;;;1.8;;
22515;SDS011;11424;48.860;9.624;2022-11-12T13:55:23;1.5;;;1.6;;
22515;SDS011;11424;48.860;9.624;2022-11-12T14:00:25;1.9;;;2.1;;
22515;SDS011;11424;48.860;9.624;2022-11-12T14:05:23;1.6;;;1.7;;
22515;SDS011;11424;48.860;9.624;2022-11-12T14:10:25;1.7;;;1.8;;
22515;SDS011;11424;48.860;9.624;2022-11-12T14:15:25;1.7;;;1.9;;
22515;SDS011;11424;48.860;9.624;2022-11-12T14:20:23;1.6;;;2;;
22515;SDS011;11424;48.860;9.624;2022-11-12T14:25:23;1.7;;;1.8;;
22515;SDS011;11424;48.860;9.624;2022-11-12T14:30:24;2.1;;;2.3;;
22515;SDS011;11424;48.860;9.624;2022-11-12T14:35:25;2.5;;;2.7;;
22515;SDS011;11424;48.860;9.624;2022-11-12T14:40:23;2;;;2.2;;
22515;SDS011;11424;48.860;9.624;2022-11-12T14:45:23;1.7;;;1.8;;
22515;SDS011;11424;48.860;9.624;2022-11-12T14:50:26;2;;;2.1;;
22515;SDS011;11424;48.860;9.624;2022-11-12T14:55:23;2.1;;;2.3;;
22515;SDS011;11424;48.860;9.624;2022-11-12T15:00:35;2.2;;;2.4;;
22515;SDS011;11424;48.860;9.624;2022-11-12T15:05:23;2.2;;;2.4;;
22515;SDS011;11424;48.860;9.624;2022-11-12T15:10:27;2.1;;;2.3;;
22515;SDS011;11424;48.860;9.624;2022-11-12T15:15:23;1.6;;;1.7;;
22515;SDS011;11424;48.860;9.624;2022-11-12T15:20:23;1.9;;;2;;
22515;SDS011;11424;48.860;9.624;2022-11-12T15:25:23;2.7;;;2.9;;
22515;SDS011;11424;48.860;9.624;2022-11-12T15:30:25;3.1;;;3.4;;
22515;SDS011;11424;48.860;9.624;2022-11-12T15:35:31;2.9;;;3.2;;
22515;SDS011;11424;48.860;9.624;2022-11-12T15:40:23;3.2;;;4.1;;
22515;SDS011;11424;48.860;9.624;2022-11-12T15:45:23;3.2;;;3.8;;
22515;SDS011;11424;48.860;9.624;2022-11-12T15:50:23;2.6;;;3;;
22515;SDS011;11424;48.860;9.624;2022-11-12T15:55:23;2.1;;;2.3;;
22515;SDS011;11424;48.860;9.624;2022-11-12T16:00:25;2.6;;;2.8;;
22515;SDS011;11424;48.860;9.624;2022-11-12T16:05:23;3.6;;;3.9;;
22515;SDS011;11424;48.860;9.624;2022-11-12T16:10:23;3.8;;;4.2;;
22515;SDS011;11424;48.860;9.624;2022-11-12T16:15:23;2.2;;;2.4;;
22515;SDS011;11424;48.860;9.624;2022-11-12T16:20:24;2.7;;;2.9;;
22515;SDS011;11424;48.860;9.624;2022-11-12T16:25:23;2.8;;;3;;
22515;SDS011;11424;48.860;9.624;2022-11-12T16:30:23;2.7;;;3.2;;
22515;SDS011;11424;48.860;9.624;2022-11-12T16:35:23;2.4;;;3;;
22515;SDS011;11424;48.860;9.624;2022-11-12T16:40:24;2.1;;;2.3;;
22515;SDS011;11424;48.860;9.624;2022-11-12T16:45:24;1.9;;;2.1;;
22515;SDS011;11424;48.860;9.624;2022-11-12T16:50:23;2.7;;;2.9;;
22515;SDS011;11424;48.860;9.624;2022-11-12T16:55:23;2.5;;;2.8;;
22515;SDS011;11424;48.860;9.624;2022-11-12T17:00:23;3.4;;;4.9;;
22515;SDS011;11424;48.860;9.624;2022-11-12T17:05:23;4.2;;;5.7;;
22515;SDS011;11424;48.860;9.624;2022-11-12T17:10:23;3.5;;;3.9;;
22515;SDS011;11424;48.860;9.624;2022-11-12T17:15:23;3.5;;;3.9;;
22515;SDS011;11424;48.860;9.624;2022-11-12T17:20:23;3.1;;;3.4;;
22515;SDS011;11424;48.860;9.624;2022-11-12T17:25:23;3.6;;;4.7;;
22515;SDS011;11424;48.860;9.624;2022-11-12T17:30:23;3.4;;;4.3;;
22515;SDS011;11424;48.860;9.624;2022-11-12T17:35:23;3.4;;;4.6;;
22515;SDS011;11424;48.860;9.624;2022-11-12T17:40:23;3;;;3.4;;
22515;SDS011;11424;48.860;9.624;2022-11-12T17:45:23;11;;;16.3;;
22515;SDS011;11424;48.860;9.624;2022-11-12T17:50:23;9.2;;;13.2;;
22515;SDS011;11424;48.860;9.624;2022-11-12T17:55:23;4.9;;;6.6;;
22515;SDS011;11424;48.860;9.624;2022-11-12T18:00:23;3.5;;;4.5;;
22515;SDS011;11424;48.860;9.624;2022-11-12T18:05:23;3.1;;;3.5;;
22515;SDS011;11424;48.860;9.624;2022-11-12T18:10:23;5.3;;;5.8;;
22515;SDS011;11424;48.860;9.624;2022-11-12T18:15:23;4.2;;;4.6;;
22515;SDS011;11424;48.860;9.624;2022-11-12T18:20:23;3.6;;;4;;
22515;SDS011;11424;48.860;9.624;2022-11-12T18:25:23;2.9;;;3.2;;
22515;SDS011;11424;48.860;9.624;2022-11-12T18:30:23;2.1;;;2.3;;
22515;SDS011;11424;48.860;9.624;2022-11-12T18:35:23;2.1;;;2.3;;
22515;SDS011;11424;48.860;9.624;2022-11-12T18:40:23;2.4;;;2.7;;
22515;SDS011;11424;48.860;9.624;2022-11-12T18:45:23;2.2;;;2.4;;
22515;SDS011;11424;48.860;9.624;2022-11-12T18:50:23;2.2;;;2.4;;
22515;SDS011;11424;48.860;9.624;2022-11-12T18:55:23;1.8;;;2.1;;
22515;SDS011;11424;48.860;9.624;2022-11-12T19:00:23;1.7;;;1.8;;
22515;SDS011;11424;48.860;9.624;2022-11-12T19:05:23;1.8;;;1.9;;
22515;SDS011;11424;48.860;9.624;2022-11-12T19:10:23;2;;;2.2;;
22515;SDS011;11424;48.860;9.624;2022-11-12T19:15:23;1.9;;;2;;
22515;SDS011;11424;48.860;9.624;2022-11-12T19:20:23;1.8;;;1.9;;
22515;SDS011;11424;48.860;9.624;2022-11-12T19:25:23;1.9;;;2;;
22515;SDS011;11424;48.860;9.624;2022-11-12T19:30:23;1.9;;;2.1;;
22515;SDS011;11424;48.860;9.624;2022-11-12T19:35:23;1.9;;;2.1;;
22515;SDS011;11424;48.860;9.624;2022-11-12T19:40:23;2.3;;;2.8;;
22515;SDS011;11424;48.860;9.624;2022-11-12T19:45:23;2.8;;;3.7;;
22515;SDS011;11424;48.860;9.624;2022-11-12T19:50:23;3;;;4;;
22515;SDS011;11424;48.860;9.624;2022-11-12T19:55:23;3.2;;;3.5;;
22515;SDS011;11424;48.860;9.624;2022-11-12T20:00:23;3.8;;;4.9;;
22515;SDS011;11424;48.860;9.624;2022-11-12T20:05:23;4.2;;;5.3;;
22515;SDS011;11424;48.860;9.624;2022-11-12T20:10:23;4.7;;;6.3;;
22515;SDS011;11424;48.860;9.624;2022-11-12T20:15:23;4.3;;;5.1;;
22515;SDS011;11424;48.860;9.624;2022-11-12T20:20:23;3.9;;;4.7;;
22515;SDS011;11424;48.860;9.624;2022-11-12T20:25:23;3.9;;;4.3;;
22515;SDS011;11424;48.860;9.624;2022-11-12T20:30:23;3.6;;;4;;
22515;SDS011;11424;48.860;9.624;2022-11-12T20:35:23;3.5;;;4.7;;
22515;SDS011;11424;48.860;9.624;2022-11-12T20:40:23;3.3;;;3.6;;
22515;SDS011;11424;48.860;9.624;2022-11-12T20:45:23;2.9;;;3.2;;
22515;SDS011;11424;48.860;9.624;2022-11-12T20:50:23;2.3;;;2.5;;
22515;SDS011;11424;48.860;9.624;2022-11-12T20:55:23;2.1;;;2.3;;
22515;SDS011;11424;48.860;9.624;2022-11-12T21:00:23;2.2;;;2.5;;
22515;SDS011;11424;48.860;9.624;2022-11-12T21:05:23;2.4;;;2.6;;
22515;SDS011;11424;48.860;9.624;2022-11-12T21:10:23;2.1;;;2.3;;
22515;SDS011;11424;48.860;9.624;2022-11-12T21:15:23;1.9;;;2.1;;
22515;SDS011;11424;48.860;9.624;2022-11-12T21:20:23;1.8;;;1.9;;
22515;SDS011;11424;48.860;9.624;2022-11-12T21:25:23;3;;;4.3;;
22515;SDS011;11424;48.860;9.624;2022-11-12T21:30:23;3.1;;;6;;
22515;SDS011;11424;48.860;9.624;2022-11-12T21:35:23;3.2;;;4.9;;
22515;SDS011;11424;48.860;9.624;2022-11-12T21:40:23;2.2;;;2.7;;
22515;SDS011;11424;48.860;9.624;2022-11-12T21:45:23;2.2;;;3.4;;
22515;SDS011;11424;48.860;9.624;2022-11-12T21:50:23;1.9;;;2.1;;
22515;SDS011;11424;48.860;9.624;2022-11-12T21:55:23;3.1;;;4.7;;
22515;SDS011;11424;48.860;9.624;2022-11-12T22:00:23;3.8;;;6.1;;
22515;SDS011;11424;48.860;9.624;2022-11-12T22:05:23;4.1;;;6.7;;
22515;SDS011;11424;48.860;9.624;2022-11-12T22:10:23;4.8;;;9.3;;
22515;SDS011;11424;48.860;9.624;2022-11-12T22:15:23;4.8;;;9.1;;
22515;SDS011;11424;48.860;9.624;2022-11-12T22:20:23;3.9;;;6;;
22515;SDS011;11424;48.860;9.624;2022-11-12T22:25:23;4.9;;;7.3;;
22515;SDS011;11424;48.860;9.624;2022-11-12T22:30:23;5.2;;;8.6;;
22515;SDS011;11424;48.860;9.624;2022-11-12T22:35:23;4.4;;;6.1;;
22515;SDS011;11424;48.860;9.624;2022-11-12T22:40:23;3.4;;;4.2;;
22515;SDS011;11424;48.860;9.624;2022-11-12T22:45:23;3;;;3.8;;
22515;SDS011;11424;48.860;9.624;2022-11-12T22:50:23;2.9;;;4;;
22515;SDS011;11424;48.860;9.624;2022-11-12T22:55:23;3.4;;;4.3;;
22515;SDS011;11424;48.860;9.624;2022-11-12T23:00:28;4.2;;;6;;
22515;SDS011;11424;48.860;9.624;2022-11-12T23:05:23;5.5;;;8.2;;
22515;SDS011;11424;48.860;9.624;2022-11-12T23:10:23;5.4;;;8.4;;
22515;SDS011;11424;48.860;9.624;2022-11-12T23:15:26;4.3;;;6.3;;
22515;SDS011;11424;48.860;9.624;2022-11-12T23:20:23;3.6;;;5.5;;
22515;SDS011;11424;48.860;9.624;2022-11-12T23:25:23;3.6;;;5.6;;
22515;SDS011;11424;48.860;9.624;2022-11-12T23:30:23;5;;;8.2;;
22515;SDS011;11424;48.860;9.624;2022-11-12T23:35:23;4.7;;;7.3;;
22515;SDS011;11424;48.860;9.624;2022-11-12T23:40:23;5.1;;;7.7;;
22515;SDS011;11424;48.860;9.624;2022-11-12T23:45:23;3.6;;;4.8;;
22515;SDS011;11424;48.860;9.624;2022-11-12T23:50:23;4.4;;;5.5;;
22515;SDS011;11424;48.860;9.624;2022-11-12T23:55:23;3.4;;;3.7;;
